Time;durP1;ratioP1;P1;durP2;ratioP2;P2;SDS_P1;SDS_P2;PMS_P1;PMS_P2;Temp;Humidity;BMP_temperature;BMP_pressure;BME280_temperature;BME280_humidity;BME280_pressure;Samples;Min_cycle;Max_cycle;Signal;HPM_P1;HPM_P2
2022/05/31 00:01:09;;;;;;;9.23;8.20;;;8.20;1.00;;;;;;5017593;28;20558;-63
2022/05/31 00:03:37;;;;;;;8.80;8.00;;;8.30;1.00;;;;;;5017936;28;20456;-63
2022/05/31 00:06:04;;;;;;;8.90;8.10;;;8.20;1.00;;;;;;5017842;28;20562;-63
2022/05/31 00:08:34;;;;;;;9.80;8.30;;;8.20;1.00;;;;;;5017816;28;20491;-63
2022/05/31 00:11:02;;;;;;;10.20;7.97;;;8.00;1.00;;;;;;5017679;28;20556;-63
2022/05/31 00:13:30;;;;;;;11.13;8.83;;;8.10;55.80;;;;;;5017494;28;20450;-64
2022/05/31 00:15:57;;;;;;;8.23;7.43;;;8.00;35.80;;;;;;5017820;28;20443;-63
2022/05/31 00:18:23;;;;;;;11.07;8.60;;;8.00;63.00;;;;;;5017900;28;20828;-63
2022/05/31 00:20:52;;;;;;;9.33;8.40;;;8.00;98.20;;;;;;5017848;28;20464;-64
2022/05/31 00:23:20;;;;;;;10.37;8.20;;;8.10;63.70;;;;;;5017327;28;20470;-63
2022/05/31 00:25:49;;;;;;;11.80;9.73;;;8.10;36.20;;;;;;5018099;28;20459;-63
2022/05/31 00:28:16;;;;;;;9.37;8.50;;;8.00;47.30;;;;;;5017962;28;20571;-63
2022/05/31 00:30:43;;;;;;;9.57;8.40;;;8.00;22.00;;;;;;5016690;28;20475;-63
2022/05/31 00:33:10;;;;;;;14.30;8.47;;;8.00;22.10;;;;;;5016737;28;20469;-63
2022/05/31 00:35:42;;;;;;;10.97;8.50;;;8.00;12.20;;;;;;5016910;28;20526;-63
2022/05/31 00:38:13;;;;;;;12.53;8.67;;;8.00;20.30;;;;;;5017528;28;20814;-63
2022/05/31 00:40:41;;;;;;;13.00;9.07;;;8.00;44.00;;;;;;5016808;28;20466;-63
2022/05/31 00:43:10;;;;;;;10.60;8.50;;;8.00;96.90;;;;;;5017501;28;20491;-64
2022/05/31 00:45:39;;;;;;;9.10;8.20;;;8.00;99.90;;;;;;5017006;28;20519;-64
2022/05/31 00:48:12;;;;;;;29.47;9.60;;;7.90;99.90;;;;;;5016714;28;20535;-64
2022/05/31 00:50:44;;;;;;;9.63;8.63;;;7.80;99.90;;;;;;5016959;28;20913;-63
2022/05/31 00:53:20;;;;;;;9.90;8.90;;;7.80;99.90;;;;;;5017443;28;20484;-64
2022/05/31 00:55:51;;;;;;;14.70;8.93;;;7.80;99.90;;;;;;5017259;28;20558;-64
2022/05/31 00:58:28;;;;;;;10.17;8.80;;;7.80;1.00;;;;;;5017281;28;20506;-63
2022/05/31 01:00:56;;;;;;;10.80;8.90;;;7.90;1.00;;;;;;5017193;28;20522;-63
2022/05/31 01:03:24;;;;;;;10.03;7.93;;;7.80;99.90;;;;;;5016909;28;20470;-63
2022/05/31 01:05:51;;;;;;;13.57;9.33;;;7.80;1.00;;;;;;5017477;28;20494;-64
2022/05/31 01:08:22;;;;;;;11.80;8.53;;;7.80;1.00;;;;;;5017227;28;20470;-63
2022/05/31 01:10:49;;;;;;;9.77;8.83;;;7.80;1.00;;;;;;5021061;28;20471;-64
2022/05/31 01:13:19;;;;;;;10.83;8.50;;;7.80;99.90;;;;;;5020986;28;20438;-63
2022/05/31 01:15:48;;;;;;;10.73;9.57;;;7.80;99.90;;;;;;5020760;28;20907;-64
2022/05/31 01:18:15;;;;;;;9.43;8.53;;;7.70;99.90;;;;;;5021062;28;20948;-63
2022/05/31 01:20:44;;;;;;;10.70;8.73;;;7.70;99.90;;;;;;5021103;28;20446;-63
2022/05/31 01:23:14;;;;;;;9.53;8.00;;;7.70;99.90;;;;;;5020776;28;20529;-64
2022/05/31 01:26:08;;;;;;;9.70;8.17;;;7.70;99.90;;;;;;5020751;28;20464;-64
2022/05/31 01:28:44;;;;;;;16.57;9.07;;;7.70;99.90;;;;;;5020825;28;20545;-63
2022/05/31 01:31:18;;;;;;;9.03;8.13;;;7.70;99.90;;;;;;5020716;28;20554;-63
2022/05/31 01:33:51;;;;;;;8.40;7.50;;;7.80;99.90;;;;;;5020715;28;20475;-63
2022/05/31 01:36:24;;;;;;;8.53;7.83;;;7.80;99.90;;;;;;5021094;28;20464;-63
2022/05/31 01:38:56;;;;;;;11.00;8.87;;;7.80;99.90;;;;;;5020845;28;20499;-63
2022/05/31 01:41:29;;;;;;;8.30;7.50;;;7.80;99.90;;;;;;5020516;28;20819;-64
2022/05/31 01:43:59;;;;;;;14.13;8.80;;;7.80;95.60;;;;;;5020846;28;20558;-64
2022/05/31 01:46:30;;;;;;;8.77;7.97;;;7.80;54.70;;;;;;5020282;28;20494;-64
2022/05/31 01:48:58;;;;;;;9.70;7.27;;;7.80;56.20;;;;;;5020603;28;20586;-64
2022/05/31 01:51:27;;;;;;;8.90;8.10;;;7.90;80.70;;;;;;5020367;28;20463;-64
2022/05/31 01:53:56;;;;;;;11.53;8.03;;;7.90;70.10;;;;;;5020641;28;20753;-64
2022/05/31 01:56:23;;;;;;;7.70;7.00;;;7.90;48.30;;;;;;5020387;28;20558;-64
2022/05/31 01:58:56;;;;;;;8.33;7.53;;;7.90;39.60;;;;;;5020668;28;20502;-64
2022/05/31 02:01:24;;;;;;;10.37;7.70;;;8.00;49.80;;;;;;5020203;28;20502;-64
2022/05/31 02:03:53;;;;;;;8.00;7.27;;;7.90;18.70;;;;;;5020157;28;20828;-64
2022/05/31 02:06:28;;;;;;;8.33;7.43;;;7.90;1.00;;;;;;5019725;28;20471;-63
2022/05/31 02:08:55;;;;;;;9.53;7.40;;;7.90;1.00;;;;;;5020483;28;20495;-64
2022/05/31 02:11:23;;;;;;;8.87;8.07;;;8.00;1.00;;;;;;5019487;28;20751;-64
2022/05/31 02:13:51;;;;;;;8.67;6.73;;;7.90;1.00;;;;;;5020009;28;20499;-64
2022/05/31 02:16:18;;;;;;;11.97;8.23;;;7.80;1.00;;;;;;5020351;28;20940;-63
2022/05/31 02:21:37;;;;;;;8.77;7.27;;;7.80;1.00;;;;;;5018227;28;20410;-64
2022/05/31 02:24:05;;;;;;;8.77;6.70;;;7.90;56.70;;;;;;5019847;28;20938;-64
2022/05/31 02:26:32;;;;;;;7.60;6.90;;;8.00;41.80;;;;;;5019962;28;20578;-64
2022/05/31 02:28:59;;;;;;;9.60;6.90;;;8.00;60.70;;;;;;5019670;28;20591;-63
2022/05/31 02:31:30;;;;;;;8.30;7.50;;;8.00;76.30;;;;;;5019404;28;20500;-64
2022/05/31 02:33:58;;;;;;;8.20;7.20;;;8.00;57.10;;;;;;5019500;28;20554;-64
2022/05/31 02:36:25;;;;;;;8.80;7.00;;;8.10;20.80;;;;;;5019859;28;20493;-64
2022/05/31 02:38:53;;;;;;;8.43;7.10;;;8.00;8.80;;;;;;5019733;28;20496;-64
2022/05/31 02:41:20;;;;;;;8.07;7.10;;;8.00;6.10;;;;;;5019196;28;20559;-64
2022/05/31 02:43:48;;;;;;;9.80;7.20;;;8.10;22.20;;;;;;5019521;28;20460;-64
2022/05/31 02:46:20;;;;;;;7.47;6.47;;;8.10;30.00;;;;;;5019453;28;20558;-64
2022/05/31 02:48:47;;;;;;;9.97;6.83;;;8.10;17.80;;;;;;5018968;28;20888;-64
2022/05/31 02:51:14;;;;;;;8.47;6.43;;;8.20;30.30;;;;;;5018955;28;20563;-64
2022/05/31 02:53:43;;;;;;;7.90;7.10;;;8.20;32.50;;;;;;5019200;28;20497;-64
2022/05/31 02:56:12;;;;;;;7.00;6.30;;;8.20;23.90;;;;;;5019494;28;20471;-64
2022/05/31 02:58:39;;;;;;;7.73;7.03;;;8.30;22.40;;;;;;5019437;28;20506;-64
2022/05/31 03:01:19;;;;;;;12.43;6.80;;;8.30;20.00;;;;;;5018821;28;20851;-64
2022/05/31 03:03:46;;;;;;;8.03;7.23;;;8.30;22.30;;;;;;5018900;28;20550;-64
2022/05/31 03:06:13;;;;;;;8.37;7.00;;;8.30;17.40;;;;;;5019030;28;20559;-64
2022/05/31 03:08:40;;;;;;;8.27;7.50;;;8.30;1.00;;;;;;5018940;28;20492;-64
2022/05/31 03:11:10;;;;;;;9.03;7.40;;;8.30;1.00;;;;;;5018966;28;20492;-65
2022/05/31 03:13:39;;;;;;;7.80;7.00;;;8.40;1.00;;;;;;5018937;28;20472;-64
2022/05/31 03:16:06;;;;;;;9.87;7.43;;;8.40;1.00;;;;;;5019142;28;20569;-64
2022/05/31 03:18:39;;;;;;;8.70;7.40;;;8.40;1.00;;;;;;5018785;28;20492;-64
2022/05/31 03:21:14;;;;;;;10.13;7.13;;;8.40;1.00;;;;;;5018566;28;20495;-64
2022/05/31 03:23:44;;;;;;;9.80;7.70;;;8.40;1.00;;;;;;5018720;28;20478;-64
2022/05/31 03:26:14;;;;;;;8.40;7.70;;;8.50;1.00;;;;;;5018465;28;20460;-64
2022/05/31 03:28:43;;;;;;;9.27;7.03;;;8.50;1.00;;;;;;5018008;28;20494;-65
2022/05/31 03:31:13;;;;;;;8.20;6.87;;;8.50;3.90;;;;;;5018010;28;20853;-64
2022/05/31 03:33:40;;;;;;;7.80;7.00;;;8.60;12.90;;;;;;5018128;28;20529;-64
2022/05/31 03:36:07;;;;;;;9.00;7.43;;;8.50;1.00;;;;;;5018545;28;20932;-64
2022/05/31 03:38:34;;;;;;;7.67;6.97;;;8.50;1.00;;;;;;5017796;28;20538;-65
2022/05/31 03:41:01;;;;;;;9.60;7.50;;;8.50;1.00;;;;;;5018173;28;20463;-64
2022/05/31 03:43:31;;;;;;;10.13;7.83;;;8.50;1.00;;;;;;5017710;28;20761;-64
2022/05/31 03:46:00;;;;;;;7.67;6.73;;;8.50;1.00;;;;;;5018064;28;20594;-64
2022/05/31 03:48:29;;;;;;;7.43;6.70;;;8.50;1.00;;;;;;5017253;28;20587;-64
2022/05/31 03:51:00;;;;;;;10.33;6.37;;;8.60;1.00;;;;;;5018362;28;20553;-64
2022/05/31 03:53:28;;;;;;;8.67;6.70;;;8.70;1.00;;;;;;5017532;28;20498;-64
2022/05/31 03:55:55;;;;;;;8.63;6.60;;;8.70;1.00;;;;;;5018542;28;20500;-64
2022/05/31 03:58:22;;;;;;;11.63;6.77;;;8.70;1.00;;;;;;5017483;28;20840;-64
2022/05/31 04:00:49;;;;;;;8.27;6.27;;;8.70;1.00;;;;;;5018158;28;20554;-64
2022/05/31 04:03:19;;;;;;;7.33;6.03;;;8.70;1.00;;;;;;5017580;28;20936;-64
2022/05/31 04:05:46;;;;;;;6.97;5.90;;;8.70;1.00;;;;;;5017940;28;20753;-64
2022/05/31 04:08:14;;;;;;;8.30;5.97;;;8.80;1.00;;;;;;5017339;28;20465;-64
2022/05/31 04:10:42;;;;;;;7.33;6.30;;;8.80;1.00;;;;;;5017982;28;20468;-64
2022/05/31 04:13:13;;;;;;;7.00;6.40;;;8.90;1.00;;;;;;5017824;28;20510;-64
2022/05/31 04:15:40;;;;;;;6.60;6.00;;;8.90;1.00;;;;;;5016723;28;20472;-65
2022/05/31 04:18:08;;;;;;;7.60;6.50;;;8.90;1.00;;;;;;5018135;28;20559;-64
2022/05/31 04:20:38;;;;;;;8.50;7.50;;;8.90;1.00;;;;;;5016966;28;20438;-64
2022/05/31 04:26:02;;;;;;;6.90;6.33;;;8.90;1.00;;;;;;5017334;28;20447;-64
2022/05/31 04:28:29;;;;;;;10.20;6.63;;;8.90;1.00;;;;;;5017896;28;20911;-64
2022/05/31 04:30:55;;;;;;;8.87;7.37;;;8.90;1.00;;;;;;5016856;28;20841;-64
2022/05/31 04:33:22;;;;;;;7.97;7.07;;;8.90;1.00;;;;;;5017009;28;20971;-64
2022/05/31 04:35:58;;;;;;;13.13;6.73;;;9.00;1.00;;;;;;5017127;28;20474;-64
2022/05/31 04:38:25;;;;;;;7.97;7.20;;;9.00;1.00;;;;;;5017829;28;20437;-64
2022/05/31 04:40:52;;;;;;;9.37;7.50;;;9.00;1.00;;;;;;5016741;28;20782;-64
2022/05/31 04:43:19;;;;;;;8.23;7.40;;;9.10;1.00;;;;;;5016797;28;20460;-64
2022/05/31 04:45:46;;;;;;;6.60;6.00;;;9.10;1.00;;;;;;5016650;28;20537;-64
2022/05/31 04:48:13;;;;;;;7.20;6.03;;;9.20;1.00;;;;;;5017262;28;20816;-64
2022/05/31 04:50:40;;;;;;;7.23;6.53;;;9.20;1.00;;;;;;5017086;28;20531;-64
2022/05/31 04:53:08;;;;;;;6.70;6.00;;;9.20;1.00;;;;;;5016880;28;20464;-64
2022/05/31 04:55:35;;;;;;;6.70;6.10;;;9.20;1.00;;;;;;5016030;28;20510;-64
2022/05/31 04:58:02;;;;;;;7.67;6.87;;;9.20;1.00;;;;;;5017405;28;20470;-65
2022/05/31 05:00:31;;;;;;;6.93;5.67;;;9.20;1.00;;;;;;5016881;28;20467;-64
2022/05/31 05:02:58;;;;;;;6.80;6.20;;;9.30;1.00;;;;;;5013921;28;20685;-64
2022/05/31 05:05:28;;;;;;;7.73;6.93;;;9.30;1.00;;;;;;5016255;28;20558;-64
2022/05/31 05:07:55;;;;;;;7.20;6.27;;;9.30;1.00;;;;;;5016327;28;20578;-64
2022/05/31 05:10:25;;;;;;;6.67;5.70;;;9.40;39.20;;;;;;5016182;28;20506;-64
2022/05/31 05:12:52;;;;;;;7.00;6.37;;;9.50;55.90;;;;;;5015873;28;20547;-64
2022/05/31 05:15:19;;;;;;;7.13;6.43;;;9.50;93.60;;;;;;5016881;28;20507;-64
2022/05/31 05:17:46;;;;;;;6.90;6.30;;;9.60;65.30;;;;;;5017244;28;20530;-64
2022/05/31 05:20:13;;;;;;;7.90;6.40;;;9.70;74.60;;;;;;5016442;28;20499;-64
2022/05/31 05:22:40;;;;;;;8.70;6.70;;;9.60;8.20;;;;;;5016724;28;20940;-64
2022/05/31 05:25:08;;;;;;;8.60;7.57;;;9.60;18.50;;;;;;5017347;28;20928;-64
2022/05/31 05:27:39;;;;;;;9.40;8.40;;;9.70;19.40;;;;;;5016360;28;20765;-64
2022/05/31 05:32:53;;;;;;;7.47;6.77;;;9.70;1.00;;;;;;5015899;28;20570;-64
2022/05/31 05:35:20;;;;;;;9.17;7.60;;;9.80;1.00;;;;;;5016938;28;20507;-64
2022/05/31 05:37:47;;;;;;;8.17;6.30;;;9.80;1.00;;;;;;5016759;28;20889;-64
2022/05/31 05:40:14;;;;;;;8.10;7.00;;;9.80;1.00;;;;;;5015632;28;20463;-64
2022/05/31 05:42:43;;;;;;;8.13;6.37;;;9.80;1.00;;;;;;5015835;28;20960;-64
2022/05/31 05:45:13;;;;;;;9.33;7.10;;;9.80;1.00;;;;;;5016079;28;20499;-66
2022/05/31 05:47:42;;;;;;;9.47;6.87;;;10.00;1.00;;;;;;5015873;28;20478;-66
2022/05/31 05:50:09;;;;;;;7.60;6.40;;;10.10;1.00;;;;;;5016420;28;20499;-66
2022/05/31 05:52:37;;;;;;;8.33;7.20;;;10.10;1.00;;;;;;5016135;28;20562;-66
2022/05/31 05:55:05;;;;;;;8.53;6.57;;;10.10;1.00;;;;;;5016094;28;20470;-59
2022/05/31 05:57:32;;;;;;;7.00;6.30;;;10.10;1.00;;;;;;5019479;28;20550;-61
2022/05/31 06:00:01;;;;;;;7.40;6.53;;;10.00;1.00;;;;;;5019685;28;20455;-66
2022/05/31 06:02:33;;;;;;;10.57;6.00;;;9.80;1.00;;;;;;5019680;28;20951;-67
2022/05/31 06:05:08;;;;;;;6.60;5.50;;;9.70;20.80;;;;;;5019277;28;20558;-64
2022/05/31 06:07:38;;;;;;;7.73;5.50;;;9.60;99.90;;;;;;5020040;28;20562;-64
2022/05/31 06:10:13;;;;;;;8.90;5.60;;;9.70;99.90;;;;;;5019818;28;20557;-66
2022/05/31 06:12:44;;;;;;;9.67;6.30;;;9.80;99.90;;;;;;5020123;28;20463;-68
2022/05/31 06:15:18;;;;;;;7.73;6.27;;;9.90;99.90;;;;;;5019258;28;20937;-67
2022/05/31 06:17:47;;;;;;;13.03;7.40;;;10.00;43.70;;;;;;5019708;28;20970;-66
2022/05/31 06:20:16;;;;;;;9.50;6.80;;;10.10;99.90;;;;;;5019464;28;20500;-66
2022/05/31 06:22:47;;;;;;;7.10;6.30;;;10.30;1.00;;;;;;5019361;28;20504;-67
2022/05/31 06:25:20;;;;;;;6.30;5.70;;;10.50;99.90;;;;;;5018443;28;20464;-67
2022/05/31 06:27:47;;;;;;;7.07;6.37;;;10.60;99.90;;;;;;5019087;28;20510;-67
2022/05/31 06:30:19;;;;;;;10.53;6.70;;;10.70;28.40;;;;;;5018046;28;20549;-67
2022/05/31 06:32:46;;;;;;;6.53;5.70;;;11.00;98.60;;;;;;5019567;28;20582;-67
2022/05/31 06:35:12;;;;;;;9.50;6.40;;;11.30;83.80;;;;;;5018613;28;20500;-67
2022/05/31 06:37:39;;;;;;;8.20;7.50;;;11.40;99.90;;;;;;5019271;28;20932;-67
2022/05/31 06:40:08;;;;;;;11.87;6.30;;;11.50;93.20;;;;;;5019062;28;20491;-67
2022/05/31 06:42:35;;;;;;;7.57;6.43;;;11.60;11.80;;;;;;5019135;28;20460;-67
2022/05/31 06:45:05;;;;;;;10.40;6.43;;;11.70;1.00;;;;;;5019804;28;20471;-67
2022/05/31 06:47:34;;;;;;;7.57;6.70;;;11.70;1.00;;;;;;5018633;28;20475;-67
2022/05/31 06:50:01;;;;;;;7.03;6.07;;;11.70;1.00;;;;;;5018943;28;20488;-67
2022/05/31 06:58:02;;;;;;;8.40;6.03;;;11.70;1.00;;;;;;4978650;28;20546;-69
2022/05/31 07:00:29;;;;;;;8.60;7.67;;;11.70;1.00;;;;;;5019169;28;20484;-68
2022/05/31 07:03:00;;;;;;;12.53;6.70;;;11.70;1.00;;;;;;5019317;28;20456;-69
2022/05/31 07:05:28;;;;;;;10.47;6.20;;;11.70;1.00;;;;;;5018024;28;20464;-68
2022/05/31 07:07:58;;;;;;;6.67;6.07;;;11.50;1.00;;;;;;5017332;28;20460;-68
2022/05/31 07:10:27;;;;;;;10.03;6.10;;;11.30;1.00;;;;;;5018980;28;20615;-69
2022/05/31 07:12:54;;;;;;;6.53;5.70;;;11.30;1.00;;;;;;5017812;28;20463;-68
2022/05/31 07:15:25;;;;;;;8.47;5.67;;;11.30;1.00;;;;;;5016430;28;20472;-69
2022/05/31 07:17:56;;;;;;;8.30;5.70;;;11.30;1.00;;;;;;5017848;28;20555;-68
2022/05/31 07:20:24;;;;;;;6.27;5.20;;;11.40;1.00;;;;;;5017463;28;20468;-68
2022/05/31 07:22:55;;;;;;;8.80;5.37;;;11.50;1.00;;;;;;5018240;28;20558;-67
2022/05/31 07:25:24;;;;;;;9.27;5.60;;;11.70;1.00;;;;;;5017802;28;20924;-67
2022/05/31 07:27:57;;;;;;;8.47;5.47;;;11.70;1.00;;;;;;5018002;28;20479;-67
2022/05/31 07:30:24;;;;;;;8.13;5.53;;;11.80;1.00;;;;;;5017695;28;20560;-68
2022/05/31 07:32:51;;;;;;;9.23;6.00;;;12.00;1.00;;;;;;5017751;28;20488;-67
2022/05/31 07:35:18;;;;;;;6.10;5.20;;;12.10;1.00;;;;;;5015772;28;20530;-67
2022/05/31 07:37:46;;;;;;;8.50;5.60;;;12.20;1.00;;;;;;5017971;28;20554;-68
2022/05/31 07:40:13;;;;;;;7.70;5.83;;;12.20;1.00;;;;;;5017121;28;20502;-68
2022/05/31 07:42:41;;;;;;;6.63;5.83;;;12.10;1.00;;;;;;5018240;28;20867;-69
2022/05/31 07:45:12;;;;;;;7.10;5.70;;;12.20;1.00;;;;;;5017195;28;20895;-69
2022/05/31 07:47:39;;;;;;;6.03;5.40;;;12.40;1.00;;;;;;5017631;28;20745;-69
2022/05/31 07:50:07;;;;;;;7.77;6.03;;;12.40;1.00;;;;;;5017960;28;20488;-68
2022/05/31 07:52:34;;;;;;;8.90;5.67;;;12.50;1.00;;;;;;5018245;28;20462;-68
2022/05/31 07:55:03;;;;;;;5.97;5.47;;;12.60;1.00;;;;;;5016971;28;20487;-68
2022/05/31 08:00:15;;;;;;;11.60;6.20;;;12.80;1.00;;;;;;5017831;28;20482;-68
2022/05/31 08:02:42;;;;;;;10.23;7.00;;;12.90;1.00;;;;;;5018123;28;20522;-69
2022/05/31 08:05:13;;;;;;;7.30;6.50;;;13.00;1.00;;;;;;5017944;28;20467;-69
2022/05/31 08:07:40;;;;;;;8.40;6.07;;;13.10;1.00;;;;;;5016687;28;20538;-68
2022/05/31 08:10:10;;;;;;;6.10;5.50;;;13.20;1.00;;;;;;5017906;28;20852;-69
2022/05/31 08:12:37;;;;;;;7.27;6.57;;;13.30;1.00;;;;;;5017350;28;20473;-69
2022/05/31 08:15:05;;;;;;;7.80;6.40;;;13.30;1.00;;;;;;5018002;28;20438;-69
2022/05/31 08:17:36;;;;;;;7.07;6.13;;;13.40;1.00;;;;;;5017213;28;20972;-69
2022/05/31 08:20:08;;;;;;;6.50;5.90;;;13.60;1.00;;;;;;5016921;28;20759;-69
2022/05/31 08:22:37;;;;;;;8.60;5.93;;;13.80;1.00;;;;;;5017395;28;20475;-70
2022/05/31 08:25:06;;;;;;;7.73;6.67;;;14.20;1.00;;;;;;5017226;28;20488;-69
2022/05/31 08:27:34;;;;;;;8.67;6.30;;;14.70;1.00;;;;;;5017414;28;20468;-69
2022/05/31 08:30:03;;;;;;;9.20;6.40;;;15.10;1.00;;;;;;5017195;28;20935;-69
2022/05/31 08:32:30;;;;;;;7.80;5.93;;;15.10;99.90;;;;;;5017533;28;20550;-69
2022/05/31 08:35:01;;;;;;;7.80;5.80;;;15.00;99.90;;;;;;5017426;28;20933;-69
2022/05/31 08:37:31;;;;;;;5.43;4.30;;;15.10;99.90;;;;;;5017493;28;20885;-67
2022/05/31 08:39:58;;;;;;;6.80;6.20;;;15.00;99.90;;;;;;5016780;28;20460;-69
2022/05/31 08:42:36;;;;;;;5.37;4.87;;;14.90;99.90;;;;;;5017612;28;20471;-68
2022/05/31 08:45:12;;;;;;;8.80;5.43;;;14.80;99.90;;;;;;5017026;28;20545;-69
2022/05/31 08:47:45;;;;;;;5.80;5.30;;;14.50;99.90;;;;;;5017422;28;20514;-70
2022/05/31 08:53:21;;;;;;;9.27;6.10;;;14.10;99.90;;;;;;5016835;28;20439;-66
2022/05/31 08:58:46;;;;;;;7.13;6.47;;;13.80;1.00;;;;;;5015240;28;20912;-65
2022/05/31 09:01:17;;;;;;;8.17;6.23;;;13.70;1.00;;;;;;5016918;28;20575;-65
2022/05/31 09:03:47;;;;;;;7.43;6.73;;;13.50;1.00;;;;;;5017175;28;20558;-65
2022/05/31 09:06:18;;;;;;;8.80;6.00;;;13.50;1.00;;;;;;5016855;28;20510;-66
2022/05/31 09:08:53;;;;;;;6.80;6.10;;;13.40;1.00;;;;;;5017416;28;20825;-65
2022/05/31 09:11:23;;;;;;;9.17;7.20;;;13.50;1.00;;;;;;5016446;28;20494;-65
2022/05/31 09:13:57;;;;;;;8.30;7.50;;;13.40;1.00;;;;;;5017019;28;20504;-65
2022/05/31 09:16:45;;;;;;;9.57;6.80;;;13.40;1.00;;;;;;5016157;28;20467;-64
2022/05/31 09:19:17;;;;;;;8.90;6.90;;;13.30;1.00;;;;;;5017077;28;20522;-66
2022/05/31 09:21:46;;;;;;;8.03;6.33;;;13.10;1.00;;;;;;5016833;28;20468;-64
2022/05/31 09:24:15;;;;;;;6.93;6.33;;;13.20;1.00;;;;;;5017064;28;20558;-65
2022/05/31 09:27:11;;;;;;;10.60;7.10;;;13.30;1.00;;;;;;5016512;28;20460;-66
2022/05/31 09:29:58;;;;;;;7.90;7.10;;;13.60;1.00;;;;;;5009922;28;20486;-63
2022/05/31 09:32:39;;;;;;;9.80;6.10;;;14.00;1.00;;;;;;5020602;28;20495;-65
2022/05/31 09:35:19;;;;;;;9.00;6.70;;;14.30;1.00;;;;;;5020696;28;20471;-65
2022/05/31 09:38:07;;;;;;;9.73;6.67;;;14.40;1.00;;;;;;5020012;28;20804;-64
2022/05/31 09:40:43;;;;;;;6.67;5.57;;;14.50;1.00;;;;;;5020686;28;20898;-65
2022/05/31 09:43:21;;;;;;;10.17;5.90;;;14.60;99.90;;;;;;5020219;28;20932;-66
2022/05/31 09:45:59;;;;;;;6.23;5.57;;;14.60;99.90;;;;;;5020706;28;20467;-65
2022/05/31 09:48:29;;;;;;;6.37;5.80;;;14.50;99.90;;;;;;5019712;28;20559;-66
2022/05/31 09:50:59;;;;;;;7.10;5.77;;;14.50;99.90;;;;;;5020475;28;20487;-66
2022/05/31 09:59:09;;;;;;;10.00;5.70;;;14.50;99.90;;;;;;5019311;28;20591;-65
2022/05/31 10:01:46;;;;;;;7.73;5.30;;;14.50;99.90;;;;;;5002125;28;20463;-65
2022/05/31 10:04:22;;;;;;;8.47;6.33;;;14.40;99.90;;;;;;5020384;28;20470;-66
2022/05/31 10:06:56;;;;;;;8.80;5.90;;;14.50;99.90;;;;;;5020081;28;20475;-65
2022/05/31 10:09:32;;;;;;;8.30;6.33;;;14.40;99.90;;;;;;5019149;28;20471;-65
2022/05/31 10:12:17;;;;;;;7.33;6.63;;;14.50;99.90;;;;;;5018588;28;20547;-65
2022/05/31 10:14:46;;;;;;;6.63;6.03;;;14.60;99.90;;;;;;5020277;28;20467;-66
2022/05/31 10:17:30;;;;;;;6.70;6.00;;;14.60;99.90;;;;;;5017694;28;20456;-67
2022/05/31 10:20:19;;;;;;;6.70;6.10;;;14.60;99.90;;;;;;5015465;28;20468;-66
2022/05/31 10:22:56;;;;;;;7.90;6.23;;;14.80;99.90;;;;;;5015923;28;20476;-66
2022/05/31 10:25:29;;;;;;;6.97;6.27;;;14.90;99.90;;;;;;5014168;28;20464;-65
2022/05/31 10:28:04;;;;;;;5.87;5.23;;;15.00;99.90;;;;;;5015658;28;20464;-66
2022/05/31 10:30:32;;;;;;;6.40;5.13;;;15.20;99.90;;;;;;5018904;28;20586;-66
2022/05/31 10:33:07;;;;;;;7.37;6.27;;;15.70;99.90;;;;;;5019135;28;20531;-66
2022/05/31 10:35:38;;;;;;;8.70;6.40;;;16.60;99.90;;;;;;5018684;28;20503;-66
2022/05/31 10:38:10;;;;;;;9.13;6.60;;;17.80;99.90;;;;;;5019708;28;20522;-68
2022/05/31 10:40:52;;;;;;;7.07;5.70;;;18.40;99.90;;;;;;5019151;28;20893;-67
2022/05/31 10:43:35;;;;;;;5.87;5.40;;;18.80;99.90;;;;;;5018656;28;20464;-65
2022/05/31 10:46:11;;;;;;;5.03;4.33;;;18.60;99.90;;;;;;5019318;28;20571;-67
2022/05/31 10:48:49;;;;;;;6.90;4.67;;;17.50;99.90;;;;;;5019398;28;20507;-66
2022/05/31 10:51:24;;;;;;;5.17;4.47;;;17.90;99.90;;;;;;5009355;28;20523;-65
2022/05/31 10:54:09;;;;;;;5.23;4.73;;;18.30;99.90;;;;;;5019272;28;20473;-66
2022/05/31 10:56:43;;;;;;;4.70;4.40;;;17.90;99.90;;;;;;5019153;28;20464;-66
2022/05/31 10:59:17;;;;;;;4.53;4.13;;;18.30;99.90;;;;;;5018913;28;20475;-66
2022/05/31 11:02:15;;;;;;;5.53;4.20;;;19.50;99.90;;;;;;5018853;28;20472;-65
2022/05/31 11:04:56;;;;;;;5.43;4.53;;;19.70;99.90;;;;;;5019328;28;20881;-67
2022/05/31 11:07:38;;;;;;;3.93;3.60;;;20.70;99.90;;;;;;5018873;28;20464;-65
2022/05/31 11:13:21;;;;;;;4.67;4.23;;;21.90;99.90;;;;;;5018174;28;20510;-66
2022/05/31 11:15:56;;;;;;;5.00;4.60;;;22.20;99.90;;;;;;5018860;28;20881;-65
2022/05/31 11:18:47;;;;;;;8.00;3.80;;;22.10;99.90;;;;;;5016373;28;20812;-66
2022/05/31 11:21:33;;;;;;;4.37;3.97;;;22.10;99.90;;;;;;4998640;28;20469;-67
2022/05/31 11:24:14;;;;;;;3.53;3.33;;;22.20;99.90;;;;;;5016234;28;20951;-66
2022/05/31 11:26:59;;;;;;;4.43;3.40;;;23.00;99.90;;;;;;5017311;28;20495;-65
2022/05/31 11:29:59;;;;;;;4.27;3.87;;;23.80;99.90;;;;;;5010063;28;20456;-65
2022/05/31 11:32:35;;;;;;;3.73;3.30;;;23.80;99.90;;;;;;5013906;28;20508;-65
2022/05/31 11:35:18;;;;;;;4.57;4.17;;;23.50;99.90;;;;;;5017653;28;20467;-67
2022/05/31 11:37:57;;;;;;;4.53;4.13;;;22.90;99.90;;;;;;5017016;28;20474;-65
2022/05/31 11:40:43;;;;;;;4.13;3.80;;;22.20;99.90;;;;;;5016398;28;20460;-64
2022/05/31 11:43:55;;;;;;;3.90;3.60;;;22.20;99.90;;;;;;5016914;28;20832;-64
2022/05/31 11:46:29;;;;;;;3.77;3.47;;;21.70;99.90;;;;;;4970708;28;20460;-64
2022/05/31 11:49:02;;;;;;;4.90;4.40;;;21.70;99.90;;;;;;5018788;28;20499;-67
2022/05/31 11:52:08;;;;;;;4.50;3.80;;;21.90;99.90;;;;;;5017969;28;20823;-65
2022/05/31 11:58:13;;;;;;;4.63;4.23;;;23.20;99.90;;;;;;5013605;28;20502;-65
2022/05/31 12:00:48;;;;;;;4.33;3.53;;;23.50;99.90;;;;;;5014479;28;20526;-67
2022/05/31 12:03:20;;;;;;;8.40;4.33;;;24.30;99.90;;;;;;5016048;28;20558;-65
2022/05/31 12:05:55;;;;;;;3.90;3.60;;;24.90;99.90;;;;;;5015258;28;20491;-65
2022/05/31 12:08:34;;;;;;;3.93;3.67;;;24.90;99.90;;;;;;5014258;28;20463;-65
2022/05/31 12:11:07;;;;;;;4.40;4.00;;;23.80;99.90;;;;;;5012908;28;20559;-66
2022/05/31 12:13:39;;;;;;;4.37;3.97;;;23.50;99.90;;;;;;5006423;28;20551;-65
2022/05/31 12:16:07;;;;;;;4.23;3.70;;;24.10;99.90;;;;;;5014513;28;20488;-65
2022/05/31 12:18:41;;;;;;;4.47;3.80;;;24.20;99.90;;;;;;5014151;28;20542;-65
2022/05/31 12:21:15;;;;;;;5.00;3.80;;;23.40;99.90;;;;;;5016517;28;20459;-65
2022/05/31 12:23:52;;;;;;;3.53;3.20;;;23.20;99.90;;;;;;5017009;28;20496;-65
2022/05/31 12:26:33;;;;;;;4.00;3.23;;;22.60;99.90;;;;;;5017486;28;20514;-65
2022/05/31 12:29:13;;;;;;;3.80;3.50;;;22.30;99.90;;;;;;5015990;28;20944;-65
2022/05/31 12:31:44;;;;;;;3.80;3.50;;;21.70;99.90;;;;;;5016190;28;20601;-64
2022/05/31 12:34:35;;;;;;;3.60;3.30;;;21.90;99.90;;;;;;5014566;28;20456;-64
2022/05/31 12:37:05;;;;;;;4.83;4.43;;;21.10;99.90;;;;;;5008347;28;20790;-64
2022/05/31 12:39:34;;;;;;;4.43;3.60;;;20.70;99.90;;;;;;5016727;28;20562;-64
2022/05/31 12:42:39;;;;;;;4.20;3.80;;;20.80;99.90;;;;;;5017200;28;20482;-65
2022/05/31 12:45:24;;;;;;;4.57;4.17;;;22.00;99.90;;;;;;5012629;28;20535;-65
2022/05/31 12:47:56;;;;;;;3.63;3.33;;;22.30;99.90;;;;;;5016982;28;20545;-65
2022/05/31 12:51:07;;;;;;;3.13;2.83;;;22.60;99.90;;;;;;5016638;28;20468;-65
2022/05/31 12:53:57;;;;;;;2.90;2.70;;;22.50;99.90;;;;;;5016606;28;20486;-64
2022/05/31 12:56:53;;;;;;;2.63;2.43;;;22.20;99.90;;;;;;5016291;28;20523;-63
2022/05/31 13:00:11;;;;;;;2.60;2.20;;;22.70;99.90;;;;;;5017074;28;20500;-64
2022/05/31 13:02:45;;;;;;;3.20;2.30;;;23.60;99.90;;;;;;5012999;28;20495;-65
2022/05/31 13:05:39;;;;;;;3.10;2.90;;;24.60;99.90;;;;;;5016604;28;20470;-65
2022/05/31 13:08:22;;;;;;;3.57;3.07;;;24.20;99.90;;;;;;5020223;28;20474;-64
2022/05/31 13:19:41;;;;;;;2.90;2.70;;;23.90;99.90;;;;;;5020164;28;20439;-64
2022/05/31 13:22:10;;;;;;;3.10;2.73;;;23.70;99.90;;;;;;5018500;28;20472;-65
2022/05/31 13:24:51;;;;;;;2.90;2.70;;;24.00;99.90;;;;;;5020077;28;20992;-64
2022/05/31 13:27:23;;;;;;;3.10;2.43;;;24.30;99.90;;;;;;5020567;28;20554;-64
2022/05/31 13:30:05;;;;;;;2.60;2.37;;;23.80;99.90;;;;;;5016760;28;20928;-64
2022/05/31 13:32:35;;;;;;;2.70;2.50;;;23.30;99.90;;;;;;5017128;28;20504;-64
2022/05/31 13:35:12;;;;;;;2.70;2.30;;;22.60;99.90;;;;;;5019429;28;20503;-63
2022/05/31 13:38:02;;;;;;;3.00;2.70;;;22.30;99.90;;;;;;5010211;28;20553;-64
2022/05/31 13:40:42;;;;;;;2.27;2.17;;;22.30;99.90;;;;;;5019643;28;20511;-63
2022/05/31 13:43:20;;;;;;;3.20;2.90;;;22.90;99.90;;;;;;5019296;28;20464;-63
2022/05/31 13:45:51;;;;;;;2.80;2.60;;;23.60;99.90;;;;;;5020509;28;20463;-64
2022/05/31 13:48:21;;;;;;;2.50;2.27;;;24.30;99.90;;;;;;5019515;28;20917;-63
2022/05/31 13:51:02;;;;;;;2.70;2.50;;;23.90;99.90;;;;;;5019559;28;20538;-64
2022/05/31 13:53:42;;;;;;;3.80;2.50;;;23.20;99.90;;;;;;5019478;28;20928;-62
2022/05/31 13:56:14;;;;;;;3.87;3.07;;;22.50;99.90;;;;;;5020447;28;20467;-62
2022/05/31 13:58:44;;;;;;;2.53;2.33;;;21.80;99.90;;;;;;5018812;28;20464;-62
2022/05/31 14:01:27;;;;;;;2.63;2.43;;;21.60;99.90;;;;;;5020453;28;20460;-63
2022/05/31 14:03:55;;;;;;;3.27;2.60;;;21.40;99.90;;;;;;5019736;28;20980;-63
2022/05/31 14:06:31;;;;;;;2.20;2.10;;;21.30;99.90;;;;;;5020273;28;20737;-62